Abbotsford Airport
CYXX : now visible

Airfield :











YOU CAN JOIN US ON...

 
LOGIN :

Register | Disclaimer

   EN    FR    IT 

 









Legend :    VFR   Marginal VFR   IFR   Intensive IFR   Very Intensive IFR
Visi :
Ceiling :
>= 8 km
>= 3000ft
5 to 8 km
1000 to 3000 ft
1500m to 5 km
500 to 1000 ft
800 to 1500m
200 to 500 ft
< 800m
< 200 ft
Symbols :   Thunderstorms  Fog  Heavy snow  Heavy precipitations  Wind > 20 kt






- Airport Elevation : 195 ft
- IATA code : YXX


CYXX - Abbotsford

CURRENT METAR :
  • 172200Z 04004KT 30SM FEW035 FEW094 BKN120 BKN240 M04/M07 A3019 RMK CU1AC1AC6CS1 CU TR VIRGA SLP230

EXPIRED METARs :
  • 172100Z 08005KT 30SM FEW030 SCT130 BKN220 BKN250 M05/M09 A3019 RMK CU1AC4CC1CI2 CU TR CONTRAILS SLP229
  • 172000Z 02004KT 30SM FEW030 FEW140 SCT230 BKN240 BKN260 M05/M08 A3019 RMK CU1AC1CC3CI1CI2 CU TR CONTRAILS SLP230

TAF TAF CYXX
Valid from the 17 at 18:00 until the 18 at 18:00 UTC


171738Z 1718/1818 04005KT P6SM FEW010 SCT060 BKN200
FM180000 06010KT P6SM SCT040 BKN100 OVC160
TEMPO 1800/1810 4SM -SHSN BKN040 OVC100
PROB30 1805/1810 P6SM -FZRA
FM181000 06015G25KT P6SM -FZRA SCT015 OVC030
TEMPO 1810/1818 21/2SM -SN -FZRA BR OVC015 RMK NXT FCST BY 180000Z



MET'MAP, your aeronautical weather chart ! - Copyright ORBIFLY December 2007 - Disclaimer

ORBIFLY MET'MAP TEAM :

Programming & Development : Alexandra Zaïnal
Concept & original design : Baudouin d'Aumeries
Assistance for programming : Marc-Olivier Méhu
Technical & hardware support : Manuel Goepfert

Contact : metmap@orbifly.com




SOURCES & CREDITS :

   NOAA       Earth
Advisory